Time;durP1;ratioP1;P1;durP2;ratioP2;P2;SDS_P1;SDS_P2;PMS_P1;PMS_P2;Temp;Humidity;BMP_temperature;BMP_pressure;BME280_temperature;BME280_humidity;BME280_pressure;Samples;Min_cycle;Max_cycle;Signal;HPM_P1;HPM_P2
2022/11/02 00:00:35;;;;;;;8.85;3.80;;;10.30;99.90;;;;;;5071710;28;20484;-57
2022/11/02 00:03:00;;;;;;;17.63;3.55;;;10.20;99.90;;;;;;5071393;28;20035;-52
2022/11/02 00:05:26;;;;;;;13.18;3.28;;;10.20;99.90;;;;;;5070396;28;20050;-55
2022/11/02 00:07:53;;;;;;;13.88;4.15;;;10.20;99.90;;;;;;5071682;28;20052;-55
2022/11/02 00:10:20;;;;;;;13.65;3.97;;;10.20;99.90;;;;;;5071476;28;20055;-53
2022/11/02 00:12:46;;;;;;;9.75;3.45;;;10.10;99.90;;;;;;5071176;28;20025;-58
2022/11/02 00:15:12;;;;;;;9.95;4.00;;;10.10;99.90;;;;;;5069709;28;20166;-55
2022/11/02 00:17:39;;;;;;;11.52;3.45;;;10.10;99.90;;;;;;5070616;28;20031;-52
2022/11/02 00:20:06;;;;;;;16.45;3.50;;;10.10;99.90;;;;;;5071185;28;20024;-53
2022/11/02 00:22:32;;;;;;;12.65;3.70;;;10.20;99.90;;;;;;5071327;28;20040;-54
2022/11/02 00:25:02;;;;;;;8.65;3.70;;;10.20;99.90;;;;;;5071359;28;20112;-57
2022/11/02 00:27:29;;;;;;;9.77;4.30;;;10.20;99.90;;;;;;5071732;28;20037;-56
2022/11/02 00:29:56;;;;;;;7.72;3.00;;;10.10;99.90;;;;;;5070026;28;20059;-55
2022/11/02 00:32:21;;;;;;;6.72;2.90;;;10.10;99.90;;;;;;5070637;28;20074;-50
2022/11/02 00:34:47;;;;;;;16.67;4.97;;;10.10;99.90;;;;;;5071886;28;20028;-52
2022/11/02 00:37:12;;;;;;;8.90;3.72;;;10.20;99.90;;;;;;5071311;28;20472;-55
2022/11/02 00:39:38;;;;;;;13.73;3.55;;;10.20;99.90;;;;;;5071636;28;20028;-52
2022/11/02 00:42:03;;;;;;;9.57;4.10;;;10.20;99.90;;;;;;5071164;28;20013;-50
2022/11/02 00:44:29;;;;;;;8.95;3.17;;;10.20;99.90;;;;;;5070448;28;20073;-49
2022/11/02 00:46:54;;;;;;;9.48;3.30;;;10.20;99.90;;;;;;5071353;28;20021;-51
2022/11/02 00:49:20;;;;;;;12.32;3.83;;;10.20;99.90;;;;;;5071399;28;20036;-50
2022/11/02 00:51:46;;;;;;;12.80;3.97;;;10.20;99.90;;;;;;5071101;28;20016;-49
2022/11/02 00:54:11;;;;;;;7.70;2.97;;;10.20;99.90;;;;;;5071129;28;20029;-51
2022/11/02 00:56:37;;;;;;;7.18;3.75;;;10.20;99.90;;;;;;5071291;28;20031;-51
2022/11/02 00:59:03;;;;;;;8.07;3.13;;;10.20;99.90;;;;;;5071347;28;20101;-52
2022/11/02 01:01:29;;;;;;;10.23;4.43;;;10.20;99.90;;;;;;5071369;28;20079;-54
2022/11/02 01:03:57;;;;;;;14.45;3.65;;;10.30;99.90;;;;;;5070586;28;20024;-51
2022/11/02 01:06:23;;;;;;;7.57;2.90;;;10.30;99.90;;;;;;5071501;28;20112;-54
2022/11/02 01:08:49;;;;;;;9.95;3.45;;;10.20;99.90;;;;;;5074448;28;20060;-50
2022/11/02 01:11:17;;;;;;;14.65;4.13;;;10.30;99.90;;;;;;5074448;28;20029;-52
2022/11/02 01:13:43;;;;;;;8.38;3.10;;;10.30;99.90;;;;;;5074231;28;20090;-54
2022/11/02 01:16:10;;;;;;;4.40;2.63;;;10.30;99.90;;;;;;5074525;28;20024;-52
2022/11/02 01:18:35;;;;;;;12.48;3.05;;;10.30;99.90;;;;;;5074619;28;20032;-50
2022/11/02 01:21:01;;;;;;;10.70;2.70;;;10.30;99.90;;;;;;5074183;28;20499;-53
2022/11/02 01:23:29;;;;;;;6.43;2.95;;;10.30;99.90;;;;;;5074234;28;20100;-51
2022/11/02 01:25:55;;;;;;;12.45;3.00;;;10.30;99.90;;;;;;5074391;28;20063;-54
2022/11/02 01:28:20;;;;;;;8.50;2.80;;;10.30;99.90;;;;;;5074321;28;20502;-54
2022/11/02 01:30:47;;;;;;;7.63;3.38;;;10.30;99.90;;;;;;5073879;28;20031;-50
2022/11/02 01:33:12;;;;;;;12.20;3.13;;;10.30;99.90;;;;;;5073803;28;20153;-53
2022/11/02 01:35:38;;;;;;;11.60;3.00;;;10.40;99.90;;;;;;5074214;28;20103;-53
2022/11/02 01:38:04;;;;;;;7.22;2.70;;;10.40;99.90;;;;;;5073948;28;20017;-54
2022/11/02 01:40:39;;;;;;;11.23;3.78;;;10.40;99.90;;;;;;5073837;28;20027;-51
2022/11/02 01:43:23;;;;;;;9.00;2.53;;;10.30;99.90;;;;;;5073841;28;20027;-50
2022/11/02 01:46:11;;;;;;;12.55;3.60;;;10.30;99.90;;;;;;5072813;28;20028;-48
2022/11/02 01:48:44;;;;;;;6.05;2.75;;;10.40;99.90;;;;;;5073250;28;20056;-50
2022/11/02 01:51:17;;;;;;;7.88;2.78;;;10.30;99.90;;;;;;5074078;28;20032;-52
2022/11/02 01:53:45;;;;;;;10.15;3.45;;;10.30;99.90;;;;;;5073647;28;20123;-53
2022/11/02 01:56:14;;;;;;;8.85;2.95;;;10.30;99.90;;;;;;5074033;28;20059;-53
2022/11/02 01:58:44;;;;;;;22.83;9.48;;;10.40;99.90;;;;;;5073613;28;20013;-53
2022/11/02 02:01:09;;;;;;;18.42;8.43;;;10.30;99.90;;;;;;5073664;28;20024;-51
2022/11/02 02:03:36;;;;;;;14.25;3.53;;;10.30;99.90;;;;;;5073200;28;20025;-54
2022/11/02 02:06:07;;;;;;;11.13;3.20;;;10.40;99.90;;;;;;5072216;28;20115;-53
2022/11/02 02:08:35;;;;;;;9.73;4.07;;;10.30;99.90;;;;;;5074521;28;20027;-55
2022/11/02 02:11:01;;;;;;;7.40;3.03;;;10.40;99.90;;;;;;5075326;28;20674;-54
2022/11/02 02:13:27;;;;;;;8.48;2.63;;;10.40;99.90;;;;;;5075217;28;20051;-55
2022/11/02 02:16:16;;;;;;;16.15;3.60;;;10.40;99.90;;;;;;5077169;28;20021;-55
2022/11/02 02:19:30;;;;;;;11.05;3.35;;;10.30;99.90;;;;;;5074447;28;20471;-53
2022/11/02 02:22:17;;;;;;;16.02;3.75;;;10.30;99.90;;;;;;5041258;28;20055;-54
2022/11/02 02:25:20;;;;;;;11.48;3.72;;;10.20;99.90;;;;;;5073682;28;20096;-54
2022/11/02 02:28:11;;;;;;;10.50;3.33;;;10.20;99.90;;;;;;5073187;28;20073;-56
2022/11/02 02:30:45;;;;;;;10.38;2.70;;;10.10;99.90;;;;;;5072843;28;20116;-54
2022/11/02 02:33:31;;;;;;;10.02;3.05;;;10.10;99.90;;;;;;5072751;28;20031;-54
2022/11/02 02:36:04;;;;;;;7.40;2.70;;;10.10;99.90;;;;;;5073137;28;20031;-53
2022/11/02 02:38:32;;;;;;;6.38;2.47;;;10.10;99.90;;;;;;5072863;28;20021;-55
2022/11/02 02:41:14;;;;;;;11.60;2.78;;;10.20;99.90;;;;;;5072906;28;20052;-53
2022/11/02 02:43:43;;;;;;;6.82;2.63;;;10.20;99.90;;;;;;5072456;28;20020;-54
2022/11/02 02:46:19;;;;;;;11.98;4.38;;;10.10;99.90;;;;;;5072853;28;20031;-55
2022/11/02 02:48:46;;;;;;;10.93;2.83;;;10.10;99.90;;;;;;5072615;28;20024;-55
2022/11/02 02:51:18;;;;;;;16.65;2.90;;;10.20;99.90;;;;;;5072621;28;20440;-50
2022/11/02 02:53:48;;;;;;;8.52;2.70;;;10.20;99.90;;;;;;5072476;28;20024;-53
2022/11/02 02:56:16;;;;;;;11.88;3.05;;;10.20;99.90;;;;;;5072523;28;20166;-52
2022/11/02 02:58:59;;;;;;;12.93;3.25;;;10.30;99.90;;;;;;5072413;28;20387;-54
2022/11/02 03:01:26;;;;;;;14.88;2.63;;;10.30;99.90;;;;;;5072482;28;20024;-53
2022/11/02 03:03:52;;;;;;;10.68;3.15;;;10.30;99.90;;;;;;5072092;28;20099;-54
2022/11/02 03:06:25;;;;;;;18.67;4.07;;;10.30;99.90;;;;;;5072480;28;20112;-57
2022/11/02 03:09:11;;;;;;;14.82;3.15;;;10.30;99.90;;;;;;5072412;28;20024;-56
2022/11/02 03:11:59;;;;;;;9.73;3.63;;;10.30;99.90;;;;;;5072647;28;20474;-55
2022/11/02 03:14:53;;;;;;;12.70;3.55;;;10.30;99.90;;;;;;5072098;28;20028;-57
2022/11/02 03:17:29;;;;;;;10.80;2.95;;;10.40;99.90;;;;;;5072102;28;20048;-55
2022/11/02 03:20:07;;;;;;;9.93;3.53;;;10.40;99.90;;;;;;5071986;28;20029;-54
2022/11/02 03:22:40;;;;;;;9.77;3.17;;;10.30;99.90;;;;;;5071804;28;20457;-56
2022/11/02 03:25:35;;;;;;;15.75;3.33;;;10.30;99.90;;;;;;5071134;28;20563;-51
2022/11/02 03:28:25;;;;;;;8.30;3.92;;;10.30;99.90;;;;;;5072027;28;20028;-57
2022/11/02 03:31:02;;;;;;;7.82;3.10;;;10.30;99.90;;;;;;5071678;28;20025;-57
2022/11/02 03:33:39;;;;;;;8.85;3.17;;;10.30;99.90;;;;;;5071575;28;20036;-54
2022/11/02 03:36:08;;;;;;;8.27;3.15;;;10.30;99.90;;;;;;5071900;28;20024;-56
2022/11/02 03:38:51;;;;;;;10.77;3.47;;;10.30;99.90;;;;;;5071755;28;20028;-56
2022/11/02 03:41:20;;;;;;;11.00;3.05;;;10.30;99.90;;;;;;5071854;28;20024;-52
2022/11/02 03:43:48;;;;;;;9.75;3.55;;;10.40;99.90;;;;;;5071352;28;20102;-54
2022/11/02 03:46:15;;;;;;;10.25;3.45;;;10.50;99.90;;;;;;5071798;28;20039;-54
2022/11/02 03:48:46;;;;;;;15.07;4.25;;;10.40;99.90;;;;;;5070277;28;20032;-52
2022/11/02 03:51:16;;;;;;;12.80;4.35;;;10.40;99.90;;;;;;5071808;28;20082;-56
2022/11/02 03:53:55;;;;;;;13.02;4.00;;;10.50;99.90;;;;;;5071425;28;20492;-55
2022/11/02 03:56:40;;;;;;;14.10;3.85;;;10.50;99.90;;;;;;5071566;28;20051;-54
2022/11/02 03:59:06;;;;;;;14.18;3.88;;;10.40;99.90;;;;;;5071542;28;20406;-54
2022/11/02 04:01:39;;;;;;;16.80;3.30;;;10.50;99.90;;;;;;5071572;28;20103;-57
2022/11/02 04:04:04;;;;;;;8.80;4.53;;;10.40;99.90;;;;;;5071332;28;20028;-55
2022/11/02 04:06:31;;;;;;;12.35;3.50;;;10.40;99.90;;;;;;5071602;28;20034;-57
2022/11/02 04:08:56;;;;;;;15.18;3.78;;;10.50;99.90;;;;;;5071499;28;20025;-52
2022/11/02 04:19:26;;;;;;;9.02;3.58;;;10.50;99.90;;;;;;5071551;28;20061;-57
2022/11/02 04:19:35;;;;;;;7.47;2.92;;;10.60;99.90;;;;;;5071276;28;20021;-52
2022/11/02 04:27:31;;;;;;;6.20;3.15;;;10.60;99.90;;;;;;5071692;28;20455;-56
2022/11/02 04:29:56;;;;;;;14.13;3.95;;;10.60;99.90;;;;;;5070956;28;20442;-53
2022/11/02 04:35:07;;;;;;;13.55;3.97;;;10.60;99.90;;;;;;5071357;28;20035;-50
2022/11/02 04:40:21;;;;;;;11.68;3.42;;;10.60;99.90;;;;;;5070982;28;20036;-55
2022/11/02 04:42:47;;;;;;;8.20;4.18;;;10.60;99.90;;;;;;5073693;28;20025;-55
2022/11/02 04:45:13;;;;;;;12.30;3.58;;;10.60;99.90;;;;;;5074924;28;20036;-53
2022/11/02 04:47:38;;;;;;;13.85;3.60;;;10.60;99.90;;;;;;5074996;28;20025;-52
2022/11/02 04:50:04;;;;;;;6.70;3.53;;;10.60;99.90;;;;;;5075173;28;20082;-55
2022/11/02 04:52:29;;;;;;;14.85;3.60;;;10.60;99.90;;;;;;5074639;28;20476;-57
2022/11/02 04:54:55;;;;;;;9.90;3.20;;;10.50;99.90;;;;;;5074881;28;20021;-57
2022/11/02 04:57:21;;;;;;;9.45;3.85;;;10.50;99.90;;;;;;5073476;28;20025;-53
2022/11/02 04:59:46;;;;;;;7.00;3.38;;;10.40;99.90;;;;;;5074788;28;20380;-50
2022/11/02 05:02:12;;;;;;;12.05;3.30;;;10.40;99.90;;;;;;5074229;28;20016;-55
2022/11/02 05:04:37;;;;;;;14.52;3.97;;;10.30;99.90;;;;;;5074724;28;20028;-56
2022/11/02 05:07:05;;;;;;;8.68;3.70;;;10.30;99.90;;;;;;5074675;28;20013;-56
2022/11/02 05:09:30;;;;;;;9.50;3.25;;;10.20;99.90;;;;;;5074642;28;20017;-53
2022/11/02 05:11:56;;;;;;;18.02;4.35;;;10.20;99.90;;;;;;5074135;28;20027;-52
2022/11/02 05:14:22;;;;;;;9.63;3.42;;;10.20;99.90;;;;;;5074415;28;20029;-54
2022/11/02 05:16:47;;;;;;;11.98;4.00;;;10.20;99.90;;;;;;5074621;28;20028;-54
2022/11/02 05:19:13;;;;;;;15.55;4.32;;;10.20;99.90;;;;;;5074518;28;20048;-54
2022/11/02 05:21:38;;;;;;;19.65;4.57;;;10.10;99.90;;;;;;5084428;23;20487;-53
2022/11/02 05:24:04;;;;;;;12.60;3.95;;;10.10;99.90;;;;;;5053674;28;20025;-51
2022/11/02 05:26:30;;;;;;;10.30;3.63;;;10.00;99.90;;;;;;5054245;28;20048;-56
2022/11/02 05:28:55;;;;;;;8.00;3.47;;;10.10;99.90;;;;;;5054178;28;20021;-55
2022/11/02 05:31:21;;;;;;;7.60;2.97;;;10.00;99.90;;;;;;5061372;28;20021;-57
2022/11/02 05:33:46;;;;;;;7.97;3.50;;;10.00;99.90;;;;;;5073791;28;20033;-55
2022/11/02 05:36:12;;;;;;;13.18;3.17;;;10.00;99.90;;;;;;5073941;28;20024;-55
2022/11/02 05:38:37;;;;;;;12.73;4.15;;;10.00;99.90;;;;;;5073976;28;20024;-57
2022/11/02 05:41:03;;;;;;;14.35;3.35;;;10.00;99.90;;;;;;5074019;28;20445;-56
2022/11/02 05:43:28;;;;;;;10.70;3.53;;;10.10;99.90;;;;;;5072283;28;20073;-54
2022/11/02 05:45:56;;;;;;;14.13;3.30;;;10.10;99.90;;;;;;5073903;28;20024;-52
2022/11/02 05:48:23;;;;;;;9.85;3.60;;;10.00;99.90;;;;;;5073903;28;20025;-54
2022/11/02 05:50:53;;;;;;;6.30;3.05;;;10.00;99.90;;;;;;5073743;28;20024;-53
2022/11/02 05:53:18;;;;;;;15.10;3.33;;;10.10;99.90;;;;;;5074116;28;20021;-56
2022/11/02 05:55:44;;;;;;;12.25;3.88;;;10.00;99.90;;;;;;5074814;28;20027;-55
2022/11/02 05:58:10;;;;;;;13.75;3.55;;;10.00;99.90;;;;;;5074444;28;20388;-55
2022/11/02 06:00:35;;;;;;;10.80;3.97;;;9.90;99.90;;;;;;5073427;28;20035;-53
2022/11/02 06:03:01;;;;;;;8.77;3.33;;;10.00;99.90;;;;;;5074233;28;20048;-55
2022/11/02 06:05:27;;;;;;;14.85;4.25;;;10.00;99.90;;;;;;5073916;28;20125;-50
2022/11/02 06:07:56;;;;;;;8.07;3.60;;;10.00;99.90;;;;;;5073515;28;20112;-54
2022/11/02 06:10:21;;;;;;;9.88;3.88;;;9.90;99.90;;;;;;5073375;28;20028;-51
2022/11/02 06:13:02;;;;;;;15.27;3.53;;;9.90;99.90;;;;;;5073019;28;20024;-51
2022/11/02 06:15:30;;;;;;;13.90;3.42;;;9.80;99.90;;;;;;5073286;28;20396;-53
2022/11/02 06:17:55;;;;;;;11.35;3.08;;;9.80;99.90;;;;;;5071805;28;20433;-53
2022/11/02 06:20:22;;;;;;;16.42;4.95;;;9.80;99.90;;;;;;5073155;28;20059;-51
2022/11/02 06:22:48;;;;;;;15.68;2.90;;;9.80;99.90;;;;;;5071537;28;20430;-53
2022/11/02 06:25:14;;;;;;;14.77;3.55;;;9.80;99.90;;;;;;5072956;28;20024;-55
2022/11/02 06:27:40;;;;;;;10.57;3.15;;;9.70;99.90;;;;;;5072915;28;20028;-53
2022/11/02 06:30:07;;;;;;;13.98;2.83;;;9.80;99.90;;;;;;5072669;28;20100;-53
2022/11/02 06:32:33;;;;;;;14.80;3.70;;;9.70;99.90;;;;;;5072511;28;20033;-51
2022/11/02 06:34:59;;;;;;;11.10;3.53;;;9.80;99.90;;;;;;5072731;28;20024;-54
2022/11/02 06:37:24;;;;;;;10.93;3.20;;;9.90;99.90;;;;;;5072743;28;20028;-53
2022/11/02 06:39:49;;;;;;;13.02;2.88;;;10.00;99.90;;;;;;5072781;28;20142;-49
2022/11/02 06:42:15;;;;;;;7.93;2.70;;;10.10;99.90;;;;;;5072401;28;20021;-52
2022/11/02 06:44:41;;;;;;;10.43;3.28;;;10.10;99.90;;;;;;5072619;28;20475;-56
2022/11/02 06:47:06;;;;;;;8.70;3.17;;;10.20;99.90;;;;;;5072607;28;20533;-50
2022/11/02 06:49:32;;;;;;;11.05;3.38;;;10.20;99.90;;;;;;5072560;28;20017;-52
2022/11/02 06:51:57;;;;;;;12.10;2.80;;;10.20;99.90;;;;;;5072129;28;20028;-49
2022/11/02 06:54:23;;;;;;;15.23;2.88;;;10.30;99.90;;;;;;5072404;28;20119;-52
2022/11/02 06:56:48;;;;;;;15.93;2.95;;;10.40;99.90;;;;;;5072276;28;20480;-50
2022/11/02 06:59:14;;;;;;;17.92;2.53;;;10.40;99.90;;;;;;5071090;28;20090;-51
2022/11/02 07:01:39;;;;;;;14.43;3.03;;;10.40;99.90;;;;;;5072217;28;20033;-52
2022/11/02 07:04:05;;;;;;;7.65;2.28;;;10.50;99.90;;;;;;5071622;28;20052;-50
2022/11/02 07:06:30;;;;;;;15.52;2.90;;;10.50;99.90;;;;;;5072384;28;20032;-50
2022/11/02 07:08:56;;;;;;;8.68;2.63;;;10.60;99.90;;;;;;5072217;28;20043;-55
2022/11/02 07:11:21;;;;;;;8.70;2.70;;;10.70;99.90;;;;;;5072146;28;20028;-52
2022/11/02 07:13:47;;;;;;;10.68;2.33;;;10.70;99.90;;;;;;5071799;28;20028;-50
2022/11/02 07:16:13;;;;;;;8.57;2.70;;;10.80;99.90;;;;;;5070845;28;20035;-51
2022/11/02 07:18:40;;;;;;;12.05;3.58;;;10.80;99.90;;;;;;5071995;28;20598;-52
2022/11/02 07:21:06;;;;;;;13.75;2.15;;;10.90;99.90;;;;;;5070538;28;20397;-52
2022/11/02 07:23:31;;;;;;;21.02;3.15;;;10.90;99.90;;;;;;5072185;28;20052;-55
2022/11/02 07:25:59;;;;;;;8.43;2.35;;;10.90;99.90;;;;;;5071989;28;20564;-50
2022/11/02 07:28:25;;;;;;;13.30;2.20;;;11.00;99.90;;;;;;5071730;28;20020;-53
2022/11/02 07:30:53;;;;;;;9.20;2.47;;;11.10;99.90;;;;;;5071271;28;20017;-53
2022/11/02 07:33:19;;;;;;;12.38;2.80;;;11.20;99.90;;;;;;5072447;28;20044;-56
2022/11/02 07:35:44;;;;;;;9.63;2.78;;;11.30;99.90;;;;;;5071806;28;20102;-56
2022/11/02 07:38:10;;;;;;;9.25;2.65;;;11.30;99.90;;;;;;5071753;28;20016;-49
2022/11/02 07:40:37;;;;;;;17.02;4.35;;;11.40;99.90;;;;;;5071558;28;20353;-51
2022/11/02 07:43:04;;;;;;;11.82;2.22;;;11.50;99.90;;;;;;5071540;28;20028;-51
2022/11/02 07:45:29;;;;;;;15.55;2.22;;;11.60;99.90;;;;;;5071865;28;20248;-49
2022/11/02 07:47:55;;;;;;;6.90;2.20;;;11.70;99.90;;;;;;5071700;28;20039;-52
2022/11/02 07:50:22;;;;;;;10.07;2.47;;;11.70;99.90;;;;;;5071727;28;20025;-53
2022/11/02 07:52:50;;;;;;;20.55;4.90;;;11.80;99.90;;;;;;5070984;28;20500;-53
2022/11/02 07:55:18;;;;;;;8.73;2.50;;;11.90;99.90;;;;;;5071552;28;20031;-56
2022/11/02 07:57:54;;;;;;;15.63;3.05;;;12.00;99.90;;;;;;5072041;28;20020;-54
2022/11/02 08:00:20;;;;;;;11.38;2.20;;;12.10;99.90;;;;;;5072329;28;20025;-53
2022/11/02 08:02:46;;;;;;;14.00;2.83;;;12.10;99.90;;;;;;5071185;28;20450;-52
2022/11/02 08:05:11;;;;;;;5.40;2.10;;;12.20;99.90;;;;;;5071461;28;20033;-53
2022/11/02 08:07:37;;;;;;;8.25;2.35;;;12.40;99.90;;;;;;5071377;28;20039;-50
2022/11/02 08:10:02;;;;;;;11.93;3.22;;;12.40;99.90;;;;;;5071432;28;20028;-50
2022/11/02 08:12:29;;;;;;;11.07;2.17;;;12.50;99.90;;;;;;5069739;28;20114;-52
2022/11/02 08:14:55;;;;;;;8.77;2.40;;;12.60;99.90;;;;;;5068443;28;20059;-50
2022/11/02 08:17:21;;;;;;;4.38;2.60;;;12.70;99.90;;;;;;5073147;28;20500;-52
2022/11/02 08:19:47;;;;;;;11.02;2.55;;;12.80;99.90;;;;;;5075343;28;20028;-50
2022/11/02 08:22:12;;;;;;;13.60;3.38;;;12.90;99.90;;;;;;5074560;28;20040;-58
2022/11/02 08:24:38;;;;;;;17.70;2.70;;;13.00;99.90;;;;;;5075256;28;20038;-55
2022/11/02 08:27:03;;;;;;;11.77;3.13;;;13.00;99.90;;;;;;5075118;28;20028;-57
2022/11/02 08:29:29;;;;;;;14.73;2.00;;;13.10;99.90;;;;;;5074129;28;20052;-52
2022/11/02 08:31:54;;;;;;;9.75;3.15;;;13.20;99.90;;;;;;5074754;28;20021;-52
2022/11/02 08:34:20;;;;;;;12.00;2.65;;;13.20;99.90;;;;;;5073557;28;20487;-51
2022/11/02 08:36:45;;;;;;;8.93;2.35;;;13.30;99.90;;;;;;5066641;28;20094;-52
2022/11/02 08:39:11;;;;;;;11.15;3.50;;;13.40;99.90;;;;;;5055717;28;20021;-50
2022/11/02 08:41:36;;;;;;;7.43;2.10;;;13.30;99.90;;;;;;5065446;28;20067;-50
2022/11/02 08:44:02;;;;;;;10.60;2.20;;;13.50;99.90;;;;;;5054763;28;20029;-52
2022/11/02 08:46:28;;;;;;;10.63;2.30;;;13.50;99.90;;;;;;5065384;28;20036;-50
2022/11/02 08:48:54;;;;;;;8.95;2.13;;;13.60;99.90;;;;;;5062935;28;20090;-53
2022/11/02 08:51:19;;;;;;;11.00;2.38;;;13.70;99.90;;;;;;5075305;28;20028;-50
2022/11/02 08:53:45;;;;;;;6.47;1.80;;;14.40;99.90;;;;;;5067910;28;20025;-52
2022/11/02 08:56:11;;;;;;;9.43;1.80;;;15.40;99.90;;;;;;5055407;28;20025;-50
2022/11/02 08:58:36;;;;;;;5.88;2.17;;;16.30;99.90;;;;;;5064792;28;20307;-51
2022/11/02 09:01:02;;;;;;;8.57;1.80;;;17.10;99.90;;;;;;5074836;28;20092;-51
2022/11/02 09:03:27;;;;;;;6.22;1.70;;;17.50;99.90;;;;;;5056866;28;20041;-54
2022/11/02 09:05:58;;;;;;;13.98;2.38;;;18.10;99.90;;;;;;5054733;28;20056;-51
2022/11/02 09:08:24;;;;;;;7.55;2.05;;;18.50;99.90;;;;;;5059811;28;20121;-55
2022/11/02 09:10:51;;;;;;;8.60;1.88;;;18.60;99.90;;;;;;5074264;28;20453;-50
2022/11/02 09:13:20;;;;;;;9.63;2.40;;;18.70;99.90;;;;;;5072705;28;20024;-51
2022/11/02 09:15:49;;;;;;;6.13;2.10;;;18.90;99.90;;;;;;5074426;28;20480;-52
2022/11/02 09:18:15;;;;;;;8.57;1.70;;;19.00;99.90;;;;;;5074347;28;20108;-52
2022/11/02 09:20:40;;;;;;;4.72;1.85;;;19.00;99.90;;;;;;5074062;28;20103;-50
2022/11/02 09:23:06;;;;;;;9.68;2.13;;;18.90;99.90;;;;;;5073910;28;20087;-52
2022/11/02 09:25:31;;;;;;;6.20;1.45;;;19.00;99.90;;;;;;5074291;28;20523;-51
2022/11/02 09:27:57;;;;;;;7.40;1.65;;;19.00;99.90;;;;;;5073503;28;20059;-49
2022/11/02 09:30:25;;;;;;;11.95;2.10;;;19.20;99.90;;;;;;5073926;28;20421;-51
2022/11/02 09:33:01;;;;;;;7.93;2.17;;;19.40;99.90;;;;;;5073783;28;20033;-49
2022/11/02 09:35:29;;;;;;;5.78;1.80;;;19.30;99.70;;;;;;5061259;28;20025;-49
2022/11/02 09:37:54;;;;;;;10.60;2.25;;;19.50;99.90;;;;;;5054576;28;20484;-50
2022/11/02 09:40:23;;;;;;;8.90;1.50;;;19.40;99.30;;;;;;5072912;28;20024;-50
2022/11/02 09:42:49;;;;;;;6.10;1.90;;;19.60;99.50;;;;;;5071616;28;20032;-49
2022/11/02 09:45:17;;;;;;;6.72;2.13;;;19.70;99.70;;;;;;5072120;28;20096;-53
2022/11/02 09:47:46;;;;;;;12.48;2.10;;;19.80;99.20;;;;;;5071965;28;20410;-49
2022/11/02 09:50:21;;;;;;;11.90;2.30;;;19.80;98.50;;;;;;5073748;28;20024;-52
2022/11/02 09:52:54;;;;;;;9.30;2.13;;;19.60;98.70;;;;;;5073308;28;20032;-46
2022/11/02 09:55:25;;;;;;;15.18;6.38;;;19.70;98.70;;;;;;5073652;28;20020;-50
2022/11/02 09:57:59;;;;;;;12.65;3.33;;;19.70;98.70;;;;;;5073800;28;20108;-53
2022/11/02 10:00:29;;;;;;;11.10;2.03;;;19.60;98.60;;;;;;5073618;28;20103;-49
2022/11/02 10:02:59;;;;;;;11.18;2.10;;;19.70;98.40;;;;;;5073301;28;20021;-50
2022/11/02 10:05:51;;;;;;;11.27;2.35;;;19.60;98.10;;;;;;5073518;28;20111;-51
2022/11/02 10:08:35;;;;;;;7.32;2.13;;;19.30;98.70;;;;;;5073138;28;20031;-48
2022/11/02 10:11:25;;;;;;;8.20;2.63;;;19.20;99.10;;;;;;5073221;28;20375;-50
2022/11/02 10:13:58;;;;;;;9.45;2.95;;;18.60;99.10;;;;;;5072953;28;20028;-48
2022/11/02 10:16:38;;;;;;;6.40;1.63;;;18.10;99.80;;;;;;5073244;28;20432;-50
2022/11/02 10:19:15;;;;;;;10.45;2.40;;;18.00;99.90;;;;;;5073074;28;20035;-49
2022/11/02 10:21:45;;;;;;;5.15;1.70;;;18.00;99.90;;;;;;5072881;28;20036;-51
2022/11/02 10:24:24;;;;;;;13.70;2.30;;;17.80;99.90;;;;;;5072414;28;20086;-54
2022/11/02 10:26:59;;;;;;;10.23;2.75;;;17.70;99.90;;;;;;5071499;28;20106;-51
2022/11/02 10:30:01;;;;;;;13.18;3.05;;;17.50;99.90;;;;;;5072227;28;20373;-48
2022/11/02 10:32:34;;;;;;;14.63;2.92;;;17.40;99.90;;;;;;5065024;28;20038;-48
2022/11/02 10:35:03;;;;;;;12.50;2.35;;;17.20;99.90;;;;;;5072670;28;20025;-50
2022/11/02 10:37:43;;;;;;;4.85;2.20;;;17.10;99.90;;;;;;5072605;28;20043;-51
2022/11/02 10:40:14;;;;;;;6.30;2.40;;;17.10;99.90;;;;;;5071996;28;20032;-52
2022/11/02 10:42:58;;;;;;;11.45;2.50;;;17.20;99.90;;;;;;5072536;28;20031;-51
2022/11/02 10:45:36;;;;;;;9.43;2.97;;;17.20;99.90;;;;;;5072000;28;20044;-50
2022/11/02 10:48:08;;;;;;;8.48;2.00;;;17.00;99.90;;;;;;5065216;28;20013;-49
2022/11/02 10:50:44;;;;;;;14.10;2.72;;;17.00;99.90;;;;;;5058707;28;20033;-52
2022/11/02 10:53:16;;;;;;;7.32;2.13;;;17.10;99.90;;;;;;5071886;28;20160;-55
2022/11/02 10:56:13;;;;;;;11.65;2.38;;;17.10;99.90;;;;;;5072361;28;20021;-50
2022/11/02 10:59:09;;;;;;;6.15;2.45;;;16.90;99.90;;;;;;5072408;28;20021;-53
2022/11/02 11:01:35;;;;;;;8.43;1.98;;;16.70;99.90;;;;;;5071296;28;20294;-55
2022/11/02 11:04:05;;;;;;;8.25;2.15;;;16.70;99.90;;;;;;5051992;28;20075;-48
2022/11/02 11:06:38;;;;;;;10.02;2.15;;;16.70;99.90;;;;;;5052212;28;20025;-50
2022/11/02 11:09:14;;;;;;;6.68;1.70;;;16.50;99.90;;;;;;5052709;28;20433;-53
2022/11/02 11:11:39;;;;;;;6.63;2.53;;;16.50;99.90;;;;;;5071207;28;20020;-54
2022/11/02 11:14:17;;;;;;;8.50;2.58;;;16.40;99.90;;;;;;5072035;28;20030;-50
2022/11/02 11:16:52;;;;;;;6.03;1.92;;;16.40;99.90;;;;;;5072400;28;20149;-48
2022/11/02 11:19:40;;;;;;;15.63;3.22;;;16.30;99.90;;;;;;5059309;28;20033;-52
2022/11/02 11:22:24;;;;;;;12.90;2.53;;;16.20;99.90;;;;;;5059434;28;20094;-46
2022/11/02 11:24:49;;;;;;;9.32;1.98;;;16.10;99.90;;;;;;5053373;28;20512;-46
2022/11/02 11:27:18;;;;;;;33.88;19.63;;;16.10;99.90;;;;;;5062496;28;20039;-49
2022/11/02 11:29:54;;;;;;;23.52;11.30;;;16.10;99.90;;;;;;5056652;28;20464;-47
2022/11/02 11:32:22;;;;;;;8.48;1.80;;;16.00;99.90;;;;;;5056965;28;20103;-45
2022/11/02 11:35:13;;;;;;;10.38;1.83;;;16.10;99.90;;;;;;5064442;28;20028;-49
2022/11/02 11:38:07;;;;;;;10.93;2.65;;;16.00;99.90;;;;;;5061593;28;20043;-46
2022/11/02 11:40:38;;;;;;;8.30;1.70;;;16.10;99.90;;;;;;5062379;28;20178;-45
2022/11/02 11:43:10;;;;;;;6.25;1.85;;;16.20;99.90;;;;;;5062097;28;20103;-47
2022/11/02 11:45:37;;;;;;;7.82;2.50;;;16.30;99.90;;;;;;5057550;28;20044;-49
2022/11/02 11:48:38;;;;;;;5.70;1.80;;;16.20;99.90;;;;;;5059598;28;20055;-48
2022/11/02 11:51:28;;;;;;;5.35;2.10;;;16.20;99.90;;;;;;5064290;28;20104;-47
2022/11/02 11:54:16;;;;;;;5.65;1.65;;;16.20;99.90;;;;;;5054132;28;20035;-45
2022/11/02 11:56:42;;;;;;;12.32;2.15;;;16.20;99.90;;;;;;5052225;28;20601;-48
2022/11/02 11:59:30;;;;;;;8.80;2.17;;;16.10;99.90;;;;;;5057281;28;20026;-55
2022/11/02 12:01:58;;;;;;;10.85;1.88;;;16.10;99.90;;;;;;5059331;28;20074;-50
2022/11/02 12:04:28;;;;;;;5.13;1.88;;;16.00;99.90;;;;;;5056261;28;20123;-53
2022/11/02 12:07:18;;;;;;;8.65;1.60;;;15.90;99.90;;;;;;5054573;28;20017;-52
2022/11/02 12:10:18;;;;;;;7.72;1.63;;;15.90;99.90;;;;;;5056619;28;20036;-52
2022/11/02 12:13:08;;;;;;;6.03;1.40;;;15.80;99.90;;;;;;5052946;28;20059;-54
2022/11/02 12:15:44;;;;;;;7.60;1.30;;;15.90;99.90;;;;;;5059319;28;20032;-53
2022/11/02 12:18:18;;;;;;;5.82;1.70;;;15.80;99.90;;;;;;5068659;28;20491;-53
2022/11/02 12:21:14;;;;;;;6.30;1.70;;;15.80;99.70;;;;;;5061104;28;20024;-55
2022/11/02 12:24:10;;;;;;;9.60;1.45;;;15.80;99.90;;;;;;5065405;28;20021;-52
2022/11/02 12:26:52;;;;;;;;;;;15.90;99.90;;;;;;5069110;28;20032;-51
2022/11/02 12:29:56;;;;;;;16.33;2.70;;;15.90;99.90;;;;;;5062248;28;19913;-54
2022/11/02 12:32:44;;;;;;;11.63;1.83;;;15.90;99.90;;;;;;5066717;28;20037;-48
2022/11/02 12:35:31;;;;;;;8.60;2.25;;;15.90;99.90;;;;;;5068085;28;20022;-47
2022/11/02 12:38:43;;;;;;;9.55;2.08;;;15.90;99.90;;;;;;5064149;28;20021;-47
2022/11/02 12:41:11;;;;;;;4.72;1.27;;;15.80;99.90;;;;;;4988071;28;20023;-48
2022/11/02 12:44:11;;;;;;;11.80;3.33;;;15.80;99.90;;;;;;4986595;28;20038;-52
2022/11/02 12:47:08;;;;;;;7.15;1.38;;;15.80;99.90;;;;;;5043848;28;20037;-56
2022/11/02 12:50:13;;;;;;;23.40;12.98;;;15.80;99.90;;;;;;5055490;28;20082;-52
2022/11/02 12:53:10;;;;;;;7.50;2.67;;;15.80;99.90;;;;;;5065740;28;20507;-49
2022/11/02 12:55:42;;;;;;;7.63;1.67;;;15.90;99.40;;;;;;5066821;28;20028;-56
2022/11/02 12:58:16;;;;;;;5.97;1.63;;;15.80;99.80;;;;;;5059257;28;20098;-56
2022/11/02 13:00:44;;;;;;;7.78;1.90;;;15.80;99.90;;;;;;5067701;28;20119;-58
2022/11/02 13:03:36;;;;;;;5.88;1.45;;;15.80;99.90;;;;;;5067191;28;20476;-58
2022/11/02 13:06:07;;;;;;;11.52;2.30;;;15.80;99.90;;;;;;5058256;28;20252;-49
2022/11/02 13:08:40;;;;;;;9.98;1.77;;;15.80;99.90;;;;;;5064705;28;20601;-51
2022/11/02 13:11:17;;;;;;;10.15;2.22;;;15.90;99.90;;;;;;5068481;28;20055;-54
2022/11/02 13:13:55;;;;;;;10.95;1.60;;;15.90;99.90;;;;;;5059180;28;20025;-54
2022/11/02 13:16:45;;;;;;;9.52;2.17;;;15.90;99.90;;;;;;5061490;28;20528;-56
2022/11/02 13:19:19;;;;;;;8.00;1.58;;;15.90;99.90;;;;;;5062472;28;20397;-53
2022/11/02 13:21:53;;;;;;;5.43;1.40;;;16.00;99.80;;;;;;5061439;28;20394;-56